Time;durP1;ratioP1;P1;durP2;ratioP2;P2;SDS_P1;SDS_P2;PMS_P1;PMS_P2;Temp;Humidity;BMP_temperature;BMP_pressure;BME280_temperature;BME280_humidity;BME280_pressure;Samples;Min_cycle;Max_cycle;Signal;HPM_P1;HPM_P2
2021/12/13 00:00:33;;;;;;;142.32;34.13;;;;;;;;;;5158150;27;20039;-69
2021/12/13 00:03:04;;;;;;;210.35;36.60;;;;;;;;;;5153240;27;20039;-68
2021/12/13 00:05:30;;;;;;;144.10;33.20;;;;;;;;;;5158040;27;20051;-69
2021/12/13 00:07:59;;;;;;;161.10;33.58;;;;;;;;;;5157694;27;20107;-69
2021/12/13 00:10:30;;;;;;;154.80;32.83;;;;;;;;;;5157678;27;20099;-69
2021/12/13 00:13:02;;;;;;;148.90;32.50;;;;;;;;;;5157797;27;20034;-68
2021/12/13 00:15:32;;;;;;;145.68;33.60;;;;;;;;;;5157568;27;20125;-68
2021/12/13 00:18:00;;;;;;;124.25;31.30;;;;;;;;;;5157697;27;20051;-68
2021/12/13 00:20:36;;;;;;;137.68;32.75;;;;;;;;;;5156377;27;20049;-68
2021/12/13 00:23:04;;;;;;;130.75;32.72;;;;;;;;;;5158083;27;20043;-69
2021/12/13 00:25:31;;;;;;;89.82;29.17;;;;;;;;;;5157388;27;20039;-71
2021/12/13 00:28:05;;;;;;;141.13;32.63;;;;;;;;;;5157447;27;20196;-70
2021/12/13 00:30:41;;;;;;;154.60;34.10;;;;;;;;;;5138854;27;20043;-68
2021/12/13 00:33:14;;;;;;;122.72;31.45;;;;;;;;;;5158214;27;20043;-68
2021/12/13 00:35:49;;;;;;;127.70;32.33;;;;;;;;;;5157841;27;20134;-70
2021/12/13 00:38:16;;;;;;;105.00;29.33;;;;;;;;;;5157320;27;20046;-72
2021/12/13 00:40:44;;;;;;;142.18;33.47;;;;;;;;;;5157176;27;20500;-69
2021/12/13 00:43:26;;;;;;;105.43;30.77;;;;;;;;;;5157636;27;20039;-69
2021/12/13 00:45:58;;;;;;;160.25;37.33;;;;;;;;;;5157023;27;20538;-69
2021/12/13 00:48:29;;;;;;;132.10;32.75;;;;;;;;;;5138960;27;20042;-71
2021/12/13 00:51:01;;;;;;;130.65;33.42;;;;;;;;;;5157493;27;20469;-70
2021/12/13 00:53:27;;;;;;;120.20;33.10;;;;;;;;;;5156906;27;20043;-70
2021/12/13 00:55:53;;;;;;;120.07;33.75;;;;;;;;;;5156923;27;20069;-68
2021/12/13 00:58:21;;;;;;;160.07;36.50;;;;;;;;;;5157578;27;20386;-69
2021/12/13 01:00:57;;;;;;;137.77;34.72;;;;;;;;;;5156799;27;20043;-68
2021/12/13 01:03:26;;;;;;;163.85;35.22;;;;;;;;;;5156597;27;20135;-68
2021/12/13 01:05:58;;;;;;;163.13;35.33;;;;;;;;;;5156521;27;20090;-68
2021/12/13 01:08:31;;;;;;;155.82;35.40;;;;;;;;;;5156581;27;20139;-68
2021/12/13 01:11:12;;;;;;;133.95;34.03;;;;;;;;;;5156323;27;20626;-72
2021/12/13 01:13:47;;;;;;;162.52;37.42;;;;;;;;;;5156472;27;20130;-69
2021/12/13 01:16:47;;;;;;;155.10;36.40;;;;;;;;;;5156498;27;20043;-69
2021/12/13 01:21:59;;;;;;;126.45;35.20;;;;;;;;;;5156281;27;20051;-69
2021/12/13 01:25:03;;;;;;;161.65;37.88;;;;;;;;;;5156509;27;20050;-70
2021/12/13 01:27:34;;;;;;;148.88;37.30;;;;;;;;;;5155962;27;20057;-70
2021/12/13 01:30:00;;;;;;;174.35;38.65;;;;;;;;;;5156472;27;20146;-67
2021/12/13 01:32:35;;;;;;;195.50;41.13;;;;;;;;;;5155942;27;20046;-68
2021/12/13 01:35:01;;;;;;;174.55;39.00;;;;;;;;;;5156215;27;20474;-68
2021/12/13 01:37:30;;;;;;;166.13;38.38;;;;;;;;;;5156010;27;20049;-69
2021/12/13 01:39:57;;;;;;;139.27;34.58;;;;;;;;;;5137483;27;20092;-66
2021/12/13 01:42:25;;;;;;;147.07;34.63;;;;;;;;;;5155572;27;20444;-73
2021/12/13 01:44:54;;;;;;;123.07;33.92;;;;;;;;;;5155855;27;20431;-68
2021/12/13 01:47:31;;;;;;;149.93;34.90;;;;;;;;;;5155567;27;20476;-67
2021/12/13 01:50:19;;;;;;;146.52;34.92;;;;;;;;;;5156346;27;20408;-68
2021/12/13 01:52:46;;;;;;;155.57;34.17;;;;;;;;;;5155715;27;20042;-69
2021/12/13 01:55:23;;;;;;;126.68;30.77;;;;;;;;;;5155700;27;20042;-69
2021/12/13 01:57:56;;;;;;;109.10;29.30;;;;;;;;;;5155384;27;20497;-67
2021/12/13 02:00:32;;;;;;;147.02;34.67;;;;;;;;;;5137944;27;20058;-68
2021/12/13 02:02:58;;;;;;;92.85;27.38;;;;;;;;;;5155130;27;20272;-68
2021/12/13 02:05:26;;;;;;;96.18;28.45;;;;;;;;;;5155424;27;20051;-71
2021/12/13 02:07:53;;;;;;;114.57;29.63;;;;;;;;;;5155828;27;20082;-68
2021/12/13 02:10:43;;;;;;;100.75;29.23;;;;;;;;;;5137995;27;20359;-68
2021/12/13 02:13:14;;;;;;;110.03;30.48;;;;;;;;;;5142335;27;20055;-69
2021/12/13 02:18:30;;;;;;;120.33;32.70;;;;;;;;;;5155751;27;20073;-72
2021/12/13 02:21:05;;;;;;;135.93;32.38;;;;;;;;;;5155562;27;20391;-70
2021/12/13 02:23:36;;;;;;;110.68;32.95;;;;;;;;;;5155219;27;20125;-70
2021/12/13 02:26:03;;;;;;;112.30;33.13;;;;;;;;;;5155811;27;20042;-69
2021/12/13 02:28:31;;;;;;;117.75;33.78;;;;;;;;;;5155700;27;20047;-71
2021/12/13 02:31:10;;;;;;;145.60;35.47;;;;;;;;;;5155230;27;20491;-69
2021/12/13 02:33:44;;;;;;;135.35;36.70;;;;;;;;;;5155735;27;20417;-71
2021/12/13 02:36:22;;;;;;;136.75;36.25;;;;;;;;;;5155137;27;20099;-69
2021/12/13 02:38:49;;;;;;;126.85;35.97;;;;;;;;;;5155350;27;20072;-69
2021/12/13 02:41:17;;;;;;;126.55;33.83;;;;;;;;;;5155627;27;20076;-72
2021/12/13 02:43:45;;;;;;;126.75;37.33;;;;;;;;;;5157405;27;20035;-71
2021/12/13 02:46:12;;;;;;;143.27;37.58;;;;;;;;;;5141383;27;20129;-69
2021/12/13 02:48:46;;;;;;;106.22;34.47;;;;;;;;;;5159284;27;20042;-70
2021/12/13 02:51:15;;;;;;;131.90;36.08;;;;;;;;;;5159226;27;20505;-69
2021/12/13 02:53:47;;;;;;;121.32;35.90;;;;;;;;;;5141698;27;20467;-68
2021/12/13 02:56:14;;;;;;;181.95;40.90;;;;;;;;;;5159783;27;20039;-71
2021/12/13 02:58:40;;;;;;;141.10;39.63;;;;;;;;;;5159104;27;20051;-69
2021/12/13 03:01:10;;;;;;;139.25;37.65;;;;;;;;;;5159169;27;20091;-69
2021/12/13 03:03:46;;;;;;;140.50;37.22;;;;;;;;;;5158738;27;20042;-74
2021/12/13 03:06:14;;;;;;;129.35;35.83;;;;;;;;;;5159186;27;20064;-71
2021/12/13 03:08:44;;;;;;;154.38;37.80;;;;;;;;;;5140367;27;20046;-70
2021/12/13 03:11:13;;;;;;;123.25;36.60;;;;;;;;;;5158759;27;20482;-70
2021/12/13 03:13:39;;;;;;;128.90;35.80;;;;;;;;;;5158856;27;20129;-70
2021/12/13 03:16:18;;;;;;;138.10;35.10;;;;;;;;;;5159191;27;20065;-70
2021/12/13 03:19:11;;;;;;;110.85;32.13;;;;;;;;;;5158733;27;20095;-69
2021/12/13 03:21:55;;;;;;;117.53;32.63;;;;;;;;;;5154065;27;20053;-74
2021/12/13 03:24:31;;;;;;;116.57;32.13;;;;;;;;;;5140087;27;20046;-71
2021/12/13 03:27:17;;;;;;;160.38;37.47;;;;;;;;;;5140663;27;20394;-71
2021/12/13 03:30:02;;;;;;;97.18;32.35;;;;;;;;;;5140041;27;20504;-73
2021/12/13 03:32:32;;;;;;;101.72;32.10;;;;;;;;;;5158594;27;20051;-72
2021/12/13 03:35:06;;;;;;;92.00;32.15;;;;;;;;;;5158901;27;20084;-71
2021/12/13 03:37:33;;;;;;;126.95;36.55;;;;;;;;;;5159088;27;20363;-72
2021/12/13 03:40:03;;;;;;;90.85;32.38;;;;;;;;;;5158421;27;20386;-72
2021/12/13 03:42:32;;;;;;;105.28;34.58;;;;;;;;;;5158067;27;20414;-72
2021/12/13 03:45:00;;;;;;;87.35;32.28;;;;;;;;;;5158098;27;20454;-71
2021/12/13 03:47:33;;;;;;;87.40;31.45;;;;;;;;;;5158359;27;20038;-73
2021/12/13 03:50:01;;;;;;;115.55;32.85;;;;;;;;;;5158164;27;20114;-71
2021/12/13 03:52:30;;;;;;;97.50;31.10;;;;;;;;;;5158175;27;20039;-72
2021/12/13 03:54:57;;;;;;;75.63;29.33;;;;;;;;;;5158002;27;20039;-74
2021/12/13 03:57:24;;;;;;;90.82;29.80;;;;;;;;;;5158854;27;20125;-74
2021/12/13 03:59:50;;;;;;;;;;;;;;;;;;5158075;27;20530;-72
2021/12/13 04:02:18;;;;;;;79.40;27.33;;;;;;;;;;5158023;27;19919;-70
2021/12/13 04:04:56;;;;;;;108.75;38.05;;;;;;;;;;5157436;27;20363;-73
2021/12/13 04:07:26;;;;;;;74.50;25.83;;;;;;;;;;5157749;27;20141;-75
2021/12/13 04:09:55;;;;;;;69.07;24.48;;;;;;;;;;5157764;27;20046;-71
2021/12/13 04:12:25;;;;;;;69.97;22.77;;;;;;;;;;5139389;27;20082;-68
2021/12/13 04:14:59;;;;;;;68.13;22.42;;;;;;;;;;5158183;27;20085;-74
2021/12/13 04:17:56;;;;;;;77.50;22.75;;;;;;;;;;5157726;27;20051;-74
2021/12/13 04:20:25;;;;;;;56.28;20.23;;;;;;;;;;5157732;27;20130;-73
2021/12/13 04:22:53;;;;;;;63.35;19.45;;;;;;;;;;5157938;27;20091;-74
2021/12/13 04:25:21;;;;;;;50.78;19.08;;;;;;;;;;5157563;27;20043;-73
2021/12/13 04:27:48;;;;;;;44.53;16.40;;;;;;;;;;5157048;27;20406;-74
2021/12/13 04:30:14;;;;;;;;;;;;;;;;;;5157901;27;20043;-75
2021/12/13 04:32:44;;;;;;;51.45;16.85;;;;;;;;;;5157915;27;20282;-70
2021/12/13 04:35:11;;;;;;;42.85;15.75;;;;;;;;;;5157932;27;20074;-71
2021/12/13 04:37:39;;;;;;;36.05;15.43;;;;;;;;;;5139019;27;20435;-71
2021/12/13 04:40:08;;;;;;;40.33;14.32;;;;;;;;;;5157196;27;20042;-73
2021/12/13 04:42:35;;;;;;;43.35;13.98;;;;;;;;;;5157977;27;20415;-73
2021/12/13 04:45:01;;;;;;;33.08;12.95;;;;;;;;;;5138790;27;20049;-73
2021/12/13 04:47:32;;;;;;;33.38;13.13;;;;;;;;;;5157098;27;20053;-73
2021/12/13 04:50:10;;;;;;;33.03;12.75;;;;;;;;;;5156923;27;20046;-73
2021/12/13 04:52:37;;;;;;;31.00;12.25;;;;;;;;;;5157536;27;20511;-73
2021/12/13 04:55:06;;;;;;;27.77;11.45;;;;;;;;;;5138600;27;20583;-72
2021/12/13 04:57:32;;;;;;;28.48;11.93;;;;;;;;;;5156860;27;20087;-74
2021/12/13 05:00:01;;;;;;;37.45;13.10;;;;;;;;;;5138273;27;20043;-74
2021/12/13 05:02:27;;;;;;;31.52;12.10;;;;;;;;;;5156795;27;20046;-75
2021/12/13 05:04:55;;;;;;;27.80;8.77;;;;;;;;;;5156596;27;20034;-74
2021/12/13 05:07:23;;;;;;;37.17;11.27;;;;;;;;;;5156844;27;20086;-75
2021/12/13 05:09:49;;;;;;;28.08;10.05;;;;;;;;;;5121144;27;20134;-73
2021/12/13 05:12:17;;;;;;;25.02;8.90;;;;;;;;;;5138174;27;20099;-72
2021/12/13 05:14:54;;;;;;;24.67;9.63;;;;;;;;;;5156459;27;20115;-74
2021/12/13 05:17:23;;;;;;;25.90;9.95;;;;;;;;;;5156523;27;20086;-74
2021/12/13 05:20:09;;;;;;;26.52;10.55;;;;;;;;;;5156406;27;20073;-74
2021/12/13 05:22:39;;;;;;;23.23;9.77;;;;;;;;;;5138752;27;20129;-71
2021/12/13 05:25:06;;;;;;;21.58;10.75;;;;;;;;;;5156179;27;20043;-75
2021/12/13 05:27:36;;;;;;;29.98;11.32;;;;;;;;;;5137978;27;20125;-74
2021/12/13 05:30:21;;;;;;;26.02;11.68;;;;;;;;;;5156474;27;20050;-75
2021/12/13 05:32:50;;;;;;;26.20;11.20;;;;;;;;;;5156221;27;20038;-76
2021/12/13 05:35:19;;;;;;;25.23;11.05;;;;;;;;;;5156076;27;20054;-73
2021/12/13 05:37:46;;;;;;;27.42;12.27;;;;;;;;;;5137643;27;20053;-74
2021/12/13 05:40:23;;;;;;;23.48;9.85;;;;;;;;;;5137706;27;20053;-72
2021/12/13 05:42:51;;;;;;;21.98;10.63;;;;;;;;;;5156436;27;20395;-72
2021/12/13 05:45:19;;;;;;;26.92;11.40;;;;;;;;;;5156177;27;20039;-74
2021/12/13 05:48:00;;;;;;;20.67;10.50;;;;;;;;;;5138346;27;20054;-75
2021/12/13 05:50:31;;;;;;;21.20;10.25;;;;;;;;;;5155936;27;20087;-74
2021/12/13 05:53:05;;;;;;;25.85;11.07;;;;;;;;;;5156054;27;20121;-73
2021/12/13 05:55:31;;;;;;;23.90;9.98;;;;;;;;;;5155744;27;20043;-73
2021/12/13 05:57:58;;;;;;;22.02;10.57;;;;;;;;;;5155614;27;20042;-72
2021/12/13 06:00:24;;;;;;;24.30;11.13;;;;;;;;;;5155770;27;20402;-72
2021/12/13 06:02:59;;;;;;;33.63;12.18;;;;;;;;;;5155146;27;20472;-73
2021/12/13 06:05:27;;;;;;;29.02;11.75;;;;;;;;;;5136721;27;20054;-74
2021/12/13 06:07:58;;;;;;;25.48;12.48;;;;;;;;;;5155612;27;20116;-74
2021/12/13 06:10:27;;;;;;;25.83;12.15;;;;;;;;;;5155534;27;20043;-70
2021/12/13 06:13:01;;;;;;;22.90;11.25;;;;;;;;;;5155456;27;20072;-70
2021/12/13 06:15:30;;;;;;;24.58;12.52;;;;;;;;;;5155372;27;20436;-73
2021/12/13 06:18:07;;;;;;;28.70;13.40;;;;;;;;;;5154373;27;20039;-71
2021/12/13 06:20:33;;;;;;;32.53;13.90;;;;;;;;;;5155613;27;20049;-72
2021/12/13 06:23:20;;;;;;;32.13;13.68;;;;;;;;;;5155193;27;20122;-72
2021/12/13 06:25:48;;;;;;;29.92;14.25;;;;;;;;;;5155735;27;20447;-73
2021/12/13 06:28:23;;;;;;;30.80;13.98;;;;;;;;;;5155927;27;20074;-72
2021/12/13 06:30:57;;;;;;;27.40;12.65;;;;;;;;;;5155369;27;20051;-72
2021/12/13 06:33:23;;;;;;;30.88;15.02;;;;;;;;;;5155191;27;20046;-73
2021/12/13 06:36:00;;;;;;;26.98;14.30;;;;;;;;;;5155714;27;20089;-72
2021/12/13 06:38:26;;;;;;;;;;;;;;;;;;5156133;27;20053;-72
2021/12/13 06:40:55;;;;;;;35.45;14.65;;;;;;;;;;5155410;27;19994;-72
2021/12/13 06:43:26;;;;;;;29.13;13.25;;;;;;;;;;5155427;27;20420;-73
2021/12/13 06:45:52;;;;;;;35.40;14.07;;;;;;;;;;5154969;27;20050;-74
2021/12/13 06:48:18;;;;;;;28.75;13.70;;;;;;;;;;5155816;27;20051;-72
2021/12/13 06:50:47;;;;;;;28.58;13.48;;;;;;;;;;5155114;27;20043;-74
2021/12/13 06:53:18;;;;;;;25.83;13.25;;;;;;;;;;5154991;27;20042;-72
2021/12/13 06:55:45;;;;;;;31.95;15.43;;;;;;;;;;5154960;27;20058;-74
2021/12/13 06:58:16;;;;;;;34.58;13.98;;;;;;;;;;5155508;27;20130;-73
2021/12/13 07:00:42;;;;;;;31.10;13.77;;;;;;;;;;5154925;27;20043;-74
2021/12/13 07:03:11;;;;;;;27.55;13.85;;;;;;;;;;5136276;27;20086;-72
2021/12/13 07:05:48;;;;;;;25.95;13.18;;;;;;;;;;5154725;27;20038;-70
2021/12/13 07:08:14;;;;;;;;;;;;;;;;;;5155743;27;20452;-72
2021/12/13 07:10:45;;;;;;;30.23;13.65;;;;;;;;;;5155638;27;19961;-74
2021/12/13 07:13:22;;;;;;;32.17;13.90;;;;;;;;;;5155388;27;20087;-73
2021/12/13 07:15:48;;;;;;;29.58;14.05;;;;;;;;;;5154833;27;20051;-72
2021/12/13 07:18:29;;;;;;;28.83;14.27;;;;;;;;;;5154637;27;20076;-72
2021/12/13 07:21:01;;;;;;;25.00;13.13;;;;;;;;;;5138204;27;20072;-73
2021/12/13 07:23:27;;;;;;;29.60;13.88;;;;;;;;;;5154654;27;20106;-74
2021/12/13 07:25:54;;;;;;;31.58;14.38;;;;;;;;;;5155132;27;20078;-74
2021/12/13 07:28:28;;;;;;;32.83;14.52;;;;;;;;;;5154019;27;20577;-75
2021/12/13 07:30:55;;;;;;;29.45;14.93;;;;;;;;;;5159058;27;20390;-74
2021/12/13 07:33:32;;;;;;;31.25;13.88;;;;;;;;;;5158248;27;20049;-73
2021/12/13 07:35:58;;;;;;;31.00;15.82;;;;;;;;;;5158937;27;20126;-74
2021/12/13 07:38:28;;;;;;;30.20;15.75;;;;;;;;;;5123235;27;20043;-73
2021/12/13 07:40:59;;;;;;;28.40;15.52;;;;;;;;;;5140695;27;20381;-75
2021/12/13 07:43:28;;;;;;;34.92;17.15;;;;;;;;;;5158478;27;20038;-74
2021/12/13 07:46:11;;;;;;;31.20;16.23;;;;;;;;;;5157690;27;20038;-75
2021/12/13 07:48:39;;;;;;;32.85;16.20;;;;;;;;;;5157512;27;20050;-71
2021/12/13 07:51:09;;;;;;;32.90;16.33;;;;;;;;;;5157073;27;20106;-72
2021/12/13 07:53:47;;;;;;;39.92;17.73;;;;;;;;;;5156809;27;20122;-73
2021/12/13 07:56:23;;;;;;;36.78;17.30;;;;;;;;;;5156903;27;20054;-73
2021/12/13 07:58:52;;;;;;;32.65;17.45;;;;;;;;;;5156699;27;20042;-73
2021/12/13 08:01:18;;;;;;;40.15;19.58;;;;;;;;;;5156048;27;20130;-70
2021/12/13 08:03:46;;;;;;;35.15;17.83;;;;;;;;;;5156213;27;20139;-73
2021/12/13 08:06:12;;;;;;;36.53;18.75;;;;;;;;;;5155952;27;20063;-72
2021/12/13 08:08:45;;;;;;;36.13;18.77;;;;;;;;;;5156238;27;20053;-73
2021/12/13 08:11:11;;;;;;;34.97;18.35;;;;;;;;;;5156142;27;20049;-71
2021/12/13 08:13:38;;;;;;;39.20;19.75;;;;;;;;;;5156151;27;20043;-72
2021/12/13 08:16:05;;;;;;;34.65;18.38;;;;;;;;;;5156072;27;20045;-71
2021/12/13 08:18:34;;;;;;;39.63;20.80;;;;;;;;;;5156670;27;20161;-71
2021/12/13 08:21:03;;;;;;;38.63;20.73;;;;;;;;;;5156624;27;20485;-72
2021/12/13 08:23:35;;;;;;;36.92;19.35;;;;;;;;;;5156489;27;20050;-69
2021/12/13 08:26:02;;;;;;;40.85;20.30;;;;;;;;;;5156544;27;20050;-70
2021/12/13 08:28:33;;;;;;;39.97;21.52;;;;;;;;;;5156526;27;20126;-73
2021/12/13 08:31:00;;;;;;;38.75;20.90;;;;;;;;;;5156442;27;20047;-75
2021/12/13 08:33:32;;;;;;;42.47;21.80;;;;;;;;;;5156494;27;20042;-73
2021/12/13 08:35:58;;;;;;;50.30;23.52;;;;;;;;;;5157078;27;20101;-73
2021/12/13 08:38:42;;;;;;;38.72;22.38;;;;;;;;;;5156582;27;20049;-70
2021/12/13 08:41:15;;;;;;;39.42;23.05;;;;;;;;;;5137373;27;20054;-70
2021/12/13 08:43:43;;;;;;;42.60;24.08;;;;;;;;;;5156294;27;20043;-70
2021/12/13 08:46:10;;;;;;;46.60;24.58;;;;;;;;;;5156893;27;20047;-70
2021/12/13 08:48:44;;;;;;;54.25;26.23;;;;;;;;;;5156212;27;20046;-70
2021/12/13 08:51:10;;;;;;;47.85;26.15;;;;;;;;;;5156451;27;20050;-70
2021/12/13 08:53:38;;;;;;;44.47;24.80;;;;;;;;;;5155866;27;20154;-70
2021/12/13 08:56:04;;;;;;;45.55;25.80;;;;;;;;;;5155588;27;20138;-70
2021/12/13 08:58:30;;;;;;;40.83;23.55;;;;;;;;;;5155917;27;20059;-70
2021/12/13 09:01:02;;;;;;;49.55;26.65;;;;;;;;;;5155209;27;20046;-72
2021/12/13 09:03:33;;;;;;;50.85;26.88;;;;;;;;;;5154961;27;20054;-71
2021/12/13 09:06:22;;;;;;;45.80;24.80;;;;;;;;;;5136276;27;20134;-71
2021/12/13 09:09:04;;;;;;;44.42;26.25;;;;;;;;;;5141387;27;20124;-70
2021/12/13 09:11:54;;;;;;;47.35;25.92;;;;;;;;;;5154715;27;20398;-70
2021/12/13 09:14:24;;;;;;;50.70;27.05;;;;;;;;;;5155448;27;20172;-67
2021/12/13 09:16:55;;;;;;;40.25;24.80;;;;;;;;;;5155166;27;20188;-69
2021/12/13 09:19:29;;;;;;;48.63;25.35;;;;;;;;;;5154688;27;20126;-68
2021/12/13 09:22:15;;;;;;;44.35;24.73;;;;;;;;;;5154987;27;20466;-69
2021/12/13 09:25:02;;;;;;;50.67;25.90;;;;;;;;;;5154789;27;20090;-70
2021/12/13 09:27:47;;;;;;;41.20;23.87;;;;;;;;;;5155686;27;20378;-69
2021/12/13 09:30:13;;;;;;;47.75;26.80;;;;;;;;;;5155887;27;20283;-71
2021/12/13 09:32:48;;;;;;;41.78;23.63;;;;;;;;;;5155345;27;20051;-69
2021/12/13 09:35:31;;;;;;;46.50;25.95;;;;;;;;;;5155137;27;20038;-71
2021/12/13 09:38:00;;;;;;;41.63;24.20;;;;;;;;;;5155942;27;20135;-71
2021/12/13 09:40:36;;;;;;;40.17;24.10;;;;;;;;;;5155385;27;20051;-69
2021/12/13 09:43:02;;;;;;;43.10;24.75;;;;;;;;;;5155607;27;20050;-69
2021/12/13 09:45:28;;;;;;;;;;;;;;;;;;5155830;27;20465;-69
2021/12/13 09:47:55;;;;;;;40.78;24.40;;;;;;;;;;5155235;27;19919;-69
2021/12/13 09:50:21;;;;;;;;;;;;;;;;;;5137199;27;20042;-68
2021/12/13 09:53:06;;;;;;;41.92;23.35;;;;;;;;;;5155107;27;19962;-68
2021/12/13 09:55:41;;;;;;;45.70;25.67;;;;;;;;;;5154712;27;20493;-67
2021/12/13 09:58:12;;;;;;;39.40;23.10;;;;;;;;;;5155019;27;20056;-67
2021/12/13 10:00:47;;;;;;;41.45;23.95;;;;;;;;;;5155199;27;20061;-69
2021/12/13 10:03:22;;;;;;;41.35;22.50;;;;;;;;;;5154721;27;20482;-67
2021/12/13 10:05:50;;;;;;;35.70;20.98;;;;;;;;;;5154773;27;20043;-69
2021/12/13 10:08:20;;;;;;;40.15;23.55;;;;;;;;;;5155026;27;20086;-69
2021/12/13 10:10:51;;;;;;;41.35;23.45;;;;;;;;;;5154324;27;20144;-70
2021/12/13 10:13:23;;;;;;;39.10;22.02;;;;;;;;;;5154408;27;20035;-68
2021/12/13 10:15:54;;;;;;;36.10;21.63;;;;;;;;;;5154939;27;20092;-69
2021/12/13 10:18:23;;;;;;;37.67;22.50;;;;;;;;;;5155474;27;20046;-69
2021/12/13 10:20:51;;;;;;;38.53;21.80;;;;;;;;;;5155158;27;20189;-69
2021/12/13 10:23:19;;;;;;;39.30;22.27;;;;;;;;;;5155313;27;20205;-68
2021/12/13 10:25:46;;;;;;;37.17;22.02;;;;;;;;;;5136260;27;20043;-69
2021/12/13 10:28:17;;;;;;;34.10;20.40;;;;;;;;;;5154641;27;20047;-71
2021/12/13 10:30:45;;;;;;;39.50;21.73;;;;;;;;;;5154204;27;20134;-71
2021/12/13 10:33:12;;;;;;;34.53;20.55;;;;;;;;;;5135869;27;20042;-69
2021/12/13 10:35:41;;;;;;;36.50;20.48;;;;;;;;;;5135419;27;20082;-67
2021/12/13 10:38:10;;;;;;;33.13;20.83;;;;;;;;;;5154985;27;20408;-70
2021/12/13 10:40:39;;;;;;;38.03;22.13;;;;;;;;;;5154660;27;20095;-69
2021/12/13 10:43:08;;;;;;;39.25;21.67;;;;;;;;;;5154772;27;20082;-69
2021/12/13 10:45:39;;;;;;;31.65;20.40;;;;;;;;;;5155079;27;20234;-68
2021/12/13 10:48:07;;;;;;;39.45;20.88;;;;;;;;;;5153793;27;20054;-70
2021/12/13 10:50:39;;;;;;;38.30;21.33;;;;;;;;;;5154129;27;20107;-67
2021/12/13 10:53:08;;;;;;;36.80;21.20;;;;;;;;;;5135717;27;20043;-68
2021/12/13 10:55:44;;;;;;;33.47;19.27;;;;;;;;;;5154035;27;20487;-68
2021/12/13 10:58:10;;;;;;;33.88;20.85;;;;;;;;;;5154958;27;20054;-70
2021/12/13 11:00:42;;;;;;;36.50;20.52;;;;;;;;;;5154198;27;20502;-68
2021/12/13 11:03:10;;;;;;;37.35;21.17;;;;;;;;;;5155381;27;20049;-70
2021/12/13 11:05:36;;;;;;;35.33;20.25;;;;;;;;;;5158099;27;20047;-67
2021/12/13 11:08:05;;;;;;;34.13;20.35;;;;;;;;;;5159367;27;20055;-69
2021/12/13 11:10:34;;;;;;;34.90;20.77;;;;;;;;;;5158581;27;20042;-67
2021/12/13 11:13:01;;;;;;;33.85;20.42;;;;;;;;;;5158514;27;20053;-67
2021/12/13 11:15:30;;;;;;;34.38;19.55;;;;;;;;;;5158975;27;20077;-69
2021/12/13 11:17:56;;;;;;;33.58;18.38;;;;;;;;;;5158559;27;20062;-67
2021/12/13 11:20:26;;;;;;;34.28;20.02;;;;;;;;;;5158901;27;20039;-68
2021/12/13 11:22:53;;;;;;;36.70;20.83;;;;;;;;;;5159000;27;20043;-69
2021/12/13 11:25:22;;;;;;;36.33;20.65;;;;;;;;;;5139354;27;20125;-68
2021/12/13 11:27:48;;;;;;;37.53;22.00;;;;;;;;;;5157741;27;20057;-69
2021/12/13 11:30:17;;;;;;;35.63;21.27;;;;;;;;;;5158136;27;20050;-69
2021/12/13 11:32:58;;;;;;;35.60;19.77;;;;;;;;;;5158185;27;20126;-69
2021/12/13 11:35:43;;;;;;;34.17;19.20;;;;;;;;;;5158055;27;20571;-68
2021/12/13 11:38:36;;;;;;;41.10;21.50;;;;;;;;;;5158044;27;20492;-71
2021/12/13 11:41:21;;;;;;;32.50;19.60;;;;;;;;;;5158877;27;20047;-68
2021/12/13 11:43:50;;;;;;;34.55;19.17;;;;;;;;;;5158568;27;20039;-70
2021/12/13 11:46:43;;;;;;;38.22;21.67;;;;;;;;;;5140494;27;20055;-69
2021/12/13 11:49:36;;;;;;;45.50;21.73;;;;;;;;;;5157135;27;20043;-70
2021/12/13 11:52:06;;;;;;;35.70;21.52;;;;;;;;;;5157490;27;20043;-69
2021/12/13 11:54:50;;;;;;;34.03;19.33;;;;;;;;;;5157482;27;20051;-68
2021/12/13 11:57:23;;;;;;;34.88;20.73;;;;;;;;;;5158319;27;20086;-70
2021/12/13 11:59:52;;;;;;;33.47;19.83;;;;;;;;;;5157303;27;20047;-68
2021/12/13 12:02:27;;;;;;;41.50;20.48;;;;;;;;;;5158165;27;20134;-70
2021/12/13 12:05:11;;;;;;;36.60;20.17;;;;;;;;;;5157255;27;20043;-69
2021/12/13 12:07:56;;;;;;;36.22;19.83;;;;;;;;;;5157726;27;20059;-70
2021/12/13 12:10:28;;;;;;;33.97;18.77;;;;;;;;;;5122394;27;20050;-68
2021/12/13 12:13:15;;;;;;;31.70;19.38;;;;;;;;;;5156659;27;20474;-71
2021/12/13 12:15:41;;;;;;;41.60;20.85;;;;;;;;;;5155860;27;20050;-66
2021/12/13 12:18:10;;;;;;;37.42;19.90;;;;;;;;;;5138903;27;20074;-70
2021/12/13 12:20:40;;;;;;;34.20;19.92;;;;;;;;;;5158099;27;20383;-69
2021/12/13 12:23:11;;;;;;;34.88;19.73;;;;;;;;;;5138967;27;20497;-70
2021/12/13 12:25:38;;;;;;;36.80;19.98;;;;;;;;;;5139496;27;20042;-71
2021/12/13 12:28:16;;;;;;;39.03;20.30;;;;;;;;;;5157510;27;20477;-70
2021/12/13 12:30:44;;;;;;;45.90;21.90;;;;;;;;;;5156556;27;20053;-70
2021/12/13 12:33:11;;;;;;;42.08;22.55;;;;;;;;;;5157938;27;20042;-70
2021/12/13 12:35:37;;;;;;;;;;;;;;;;;;5157676;27;20042;-69
2021/12/13 12:38:16;;;;;;;47.17;23.83;;;;;;;;;;5157149;27;19921;-69
2021/12/13 12:41:05;;;;;;;48.40;25.85;;;;;;;;;;5157222;27;20125;-68
2021/12/13 12:43:35;;;;;;;48.35;25.92;;;;;;;;;;5154539;27;20042;-69
2021/12/13 12:46:06;;;;;;;56.95;27.02;;;;;;;;;;5157330;27;20049;-70
2021/12/13 12:48:40;;;;;;;48.67;24.58;;;;;;;;;;5157123;27;20038;-70
2021/12/13 12:51:06;;;;;;;48.88;25.90;;;;;;;;;;5156457;27;20039;-72
2021/12/13 12:53:32;;;;;;;46.78;24.58;;;;;;;;;;5156932;27;20046;-70
2021/12/13 12:55:59;;;;;;;46.10;23.25;;;;;;;;;;5156530;27;20046;-70
2021/12/13 12:58:29;;;;;;;45.05;23.15;;;;;;;;;;5155124;27;20046;-69
2021/12/13 13:00:58;;;;;;;46.60;22.83;;;;;;;;;;5155009;27;20129;-69
2021/12/13 13:03:34;;;;;;;42.65;22.17;;;;;;;;;;5155510;27;20035;-71
2021/12/13 13:06:06;;;;;;;49.17;24.67;;;;;;;;;;5137322;27;20046;-68
2021/12/13 13:08:38;;;;;;;49.05;24.13;;;;;;;;;;5156138;27;20280;-69
2021/12/13 13:13:51;;;;;;;49.70;24.77;;;;;;;;;;5155975;27;20335;-67
2021/12/13 13:16:18;;;;;;;56.22;26.02;;;;;;;;;;5155332;27;20042;-68
2021/12/13 13:18:44;;;;;;;51.75;26.63;;;;;;;;;;5155081;27;20070;-70
2021/12/13 13:21:12;;;;;;;46.60;24.13;;;;;;;;;;5155073;27;20069;-69
2021/12/13 13:23:45;;;;;;;53.92;26.58;;;;;;;;;;5154904;27;20467;-68
2021/12/13 13:26:12;;;;;;;48.63;25.00;;;;;;;;;;5155156;27;20419;-69
2021/12/13 13:28:59;;;;;;;48.65;24.05;;;;;;;;;;5155490;27;20088;-70
2021/12/13 13:31:35;;;;;;;50.33;23.42;;;;;;;;;;5155660;27;20465;-71
2021/12/13 13:34:03;;;;;;;45.50;22.92;;;;;;;;;;5155489;27;20041;-67
2021/12/13 13:36:45;;;;;;;39.08;22.33;;;;;;;;;;5155581;27;20070;-69
2021/12/13 13:39:11;;;;;;;43.67;22.52;;;;;;;;;;5154866;27;20043;-68
2021/12/13 13:41:37;;;;;;;40.22;21.35;;;;;;;;;;5155345;27;20122;-69
2021/12/13 13:44:15;;;;;;;38.70;20.92;;;;;;;;;;5155016;27;20047;-68
2021/12/13 13:46:42;;;;;;;40.55;21.92;;;;;;;;;;5154942;27;20135;-69
2021/12/13 13:49:07;;;;;;;;;;;;;;;;;;5155548;27;20043;-67
2021/12/13 13:51:36;;;;;;;38.70;21.20;;;;;;;;;;5155522;27;19966;-68
2021/12/13 13:54:04;;;;;;;40.70;20.50;;;;;;;;;;5155316;27;20070;-68
2021/12/13 13:56:32;;;;;;;37.78;19.75;;;;;;;;;;5119154;27;20091;-69
2021/12/13 13:59:00;;;;;;;36.70;17.90;;;;;;;;;;5154282;27;20393;-67
2021/12/13 14:01:35;;;;;;;34.42;18.02;;;;;;;;;;5153980;27;20498;-69
2021/12/13 14:04:03;;;;;;;33.05;18.38;;;;;;;;;;5155241;27;20049;-70
2021/12/13 14:06:35;;;;;;;35.95;18.75;;;;;;;;;;5154759;27;20051;-69
2021/12/13 14:09:05;;;;;;;38.65;19.15;;;;;;;;;;5154852;27;20060;-69
2021/12/13 14:11:35;;;;;;;41.92;18.38;;;;;;;;;;5136682;27;20367;-69
2021/12/13 14:14:03;;;;;;;42.40;19.75;;;;;;;;;;5155519;27;20047;-68
2021/12/13 14:16:29;;;;;;;34.83;19.13;;;;;;;;;;5154435;27;20053;-69
2021/12/13 14:18:57;;;;;;;40.80;20.17;;;;;;;;;;5154511;27;20042;-70
2021/12/13 14:21:26;;;;;;;37.50;20.02;;;;;;;;;;5154315;27;20478;-69
2021/12/13 14:23:54;;;;;;;33.03;18.00;;;;;;;;;;5154685;27;20067;-68
2021/12/13 14:26:29;;;;;;;38.22;19.27;;;;;;;;;;5154694;27;20038;-70
2021/12/13 14:28:57;;;;;;;37.17;19.27;;;;;;;;;;5136568;27;20047;-69
2021/12/13 14:31:29;;;;;;;34.40;18.27;;;;;;;;;;5136157;27;20195;-70
2021/12/13 14:33:59;;;;;;;33.92;17.55;;;;;;;;;;5136278;27;20509;-69
2021/12/13 14:36:26;;;;;;;34.63;17.88;;;;;;;;;;5153811;27;20038;-68
2021/12/13 14:38:55;;;;;;;36.15;17.85;;;;;;;;;;5153747;27;20042;-69
2021/12/13 14:41:22;;;;;;;35.55;18.38;;;;;;;;;;5153460;27;20472;-67
2021/12/13 14:43:50;;;;;;;37.63;18.77;;;;;;;;;;5154315;27;20049;-67
2021/12/13 14:46:22;;;;;;;37.95;18.17;;;;;;;;;;5154275;27;20049;-69
2021/12/13 14:48:48;;;;;;;33.42;18.05;;;;;;;;;;5154210;27;20045;-68